Time;durP1;ratioP1;P1;durP2;ratioP2;P2;SDS_P1;SDS_P2;PMS_P1;PMS_P2;Temp;Humidity;BMP_temperature;BMP_pressure;BME280_temperature;BME280_humidity;BME280_pressure;Samples;Min_cycle;Max_cycle;Signal;HPM_P1;HPM_P2
2021/01/28 00:00:41;;;;;;;125.25;37.13;;;5.60;99.90;;;6.23;100.00;100095.59;5046247;28;20060;-86
2021/01/28 00:03:12;;;;;;;118.55;35.72;;;5.50;99.90;;;6.35;100.00;100098.41;5029011;28;20029;-84
2021/01/28 00:05:42;;;;;;;118.70;34.85;;;5.50;99.90;;;6.20;100.00;100101.00;5047211;28;20064;-84
2021/01/28 00:08:08;;;;;;;132.52;38.15;;;5.50;99.90;;;6.22;100.00;100087.63;5030064;28;20048;-85
2021/01/28 00:10:36;;;;;;;140.38;38.67;;;5.50;99.90;;;6.15;100.00;100084.59;5030125;28;20041;-84
2021/01/28 00:13:05;;;;;;;137.60;36.63;;;5.50;99.90;;;6.22;100.00;100082.91;5029278;28;20176;-84
2021/01/28 00:15:34;;;;;;;142.27;37.58;;;5.50;99.90;;;6.21;100.00;100080.47;5029496;28;20044;-85
2021/01/28 00:18:05;;;;;;;140.77;39.28;;;5.50;99.90;;;6.29;100.00;100076.78;5064843;28;20062;-83
2021/01/28 00:20:44;;;;;;;127.57;37.92;;;5.50;99.90;;;6.28;100.00;100078.75;5068656;28;20055;-84
2021/01/28 00:23:13;;;;;;;120.82;37.28;;;5.50;99.90;;;6.26;100.00;100078.25;5068286;28;20099;-86
2021/01/28 00:25:39;;;;;;;128.73;35.55;;;5.50;99.90;;;6.31;100.00;100066.97;5085256;28;20033;-85
2021/01/28 00:28:10;;;;;;;136.93;38.42;;;5.40;99.90;;;6.26;100.00;100060.84;5048879;22;20038;-78
2021/01/28 00:30:47;;;;;;;127.68;36.30;;;5.50;99.90;;;6.31;100.00;100064.19;5005385;28;20033;-79
2021/01/28 00:33:19;;;;;;;125.78;36.67;;;5.50;99.90;;;6.29;100.00;100060.94;5006127;28;20075;-83
2021/01/28 00:35:50;;;;;;;136.95;37.10;;;5.50;99.90;;;6.32;100.00;100057.47;5017238;28;20040;-79
2021/01/28 00:38:31;;;;;;;135.82;38.47;;;5.50;99.90;;;6.25;100.00;100060.03;4990992;28;20031;-81
2021/01/28 00:41:00;;;;;;;132.02;38.58;;;5.40;99.90;;;6.30;100.00;100058.97;5014131;28;20052;-82
2021/01/28 00:43:27;;;;;;;145.57;36.72;;;5.60;99.90;;;6.25;100.00;100060.03;4979750;28;20030;-80
2021/01/28 00:45:53;;;;;;;137.73;37.22;;;5.50;99.90;;;6.33;100.00;100058.28;5002225;28;20026;-80
2021/01/28 00:48:21;;;;;;;137.13;37.67;;;5.50;99.90;;;6.31;100.00;100057.84;5000275;28;20034;-82
2021/01/28 00:50:47;;;;;;;141.45;38.97;;;5.50;99.90;;;6.29;100.00;100054.59;5018080;28;20030;-80
2021/01/28 00:53:16;;;;;;;125.82;33.92;;;5.50;99.90;;;6.40;100.00;100055.75;5018006;28;20034;-82
2021/01/28 00:55:44;;;;;;;152.27;40.83;;;5.50;99.90;;;6.21;100.00;100055.50;5001920;28;20042;-81
2021/01/28 00:58:15;;;;;;;145.30;37.58;;;5.50;99.90;;;6.25;100.00;100054.47;4998121;28;20030;-82
2021/01/28 01:00:45;;;;;;;150.07;36.60;;;5.50;99.90;;;6.24;100.00;100054.81;4984482;28;20419;-83
2021/01/28 01:03:17;;;;;;;148.73;38.53;;;5.50;99.90;;;6.31;100.00;100060.59;5011939;28;20030;-82
2021/01/28 01:05:46;;;;;;;149.95;39.97;;;5.50;99.90;;;6.30;100.00;100058.97;4997978;28;20096;-81
2021/01/28 01:08:25;;;;;;;148.57;40.13;;;5.50;99.90;;;6.30;100.00;100056.22;4997838;28;20030;-81
2021/01/28 01:11:05;;;;;;;132.32;37.15;;;5.50;99.90;;;6.34;100.00;100044.09;4998980;28;20458;-83
2021/01/28 01:13:36;;;;;;;144.82;37.60;;;5.50;99.90;;;6.32;100.00;100031.72;5019580;28;20402;-80
2021/01/28 01:16:09;;;;;;;139.10;36.80;;;5.50;99.90;;;6.32;100.00;100026.97;5020479;28;20037;-80
2021/01/28 01:18:37;;;;;;;134.77;39.80;;;5.50;99.90;;;6.30;100.00;100020.16;5001001;28;20026;-79
2021/01/28 01:21:06;;;;;;;146.95;38.42;;;5.50;99.90;;;6.27;100.00;100013.34;5002236;28;20057;-81
2021/01/28 01:23:32;;;;;;;137.30;39.17;;;5.50;99.90;;;6.28;100.00;100003.06;5019937;28;20105;-80
2021/01/28 01:25:59;;;;;;;150.70;40.25;;;5.50;99.90;;;6.23;100.00;100009.63;5003237;28;20034;-80
2021/01/28 01:28:27;;;;;;;141.70;39.63;;;5.50;99.90;;;6.21;100.00;100002.81;5018674;28;20034;-80
2021/01/28 01:30:54;;;;;;;145.23;39.33;;;5.50;99.90;;;6.17;100.00;100008.25;5018226;28;20037;-80
2021/01/28 01:33:21;;;;;;;162.32;43.88;;;5.50;99.90;;;6.19;100.00;100005.13;5020442;28;20030;-80
2021/01/28 01:35:47;;;;;;;135.02;39.08;;;5.50;99.90;;;6.29;100.00;99996.38;5020165;28;20082;-81
2021/01/28 01:38:14;;;;;;;132.40;39.85;;;5.50;99.90;;;6.27;100.00;99998.66;5020258;28;20087;-81
2021/01/28 01:40:54;;;;;;;142.30;39.35;;;5.40;99.90;;;6.27;100.00;99998.66;5020515;28;20033;-84
2021/01/28 01:43:20;;;;;;;115.30;36.75;;;5.50;99.90;;;6.31;100.00;99992.09;5018822;28;20032;-82
2021/01/28 01:45:55;;;;;;;139.88;39.05;;;5.50;99.90;;;6.30;100.00;99989.66;5011425;28;20030;-82
2021/01/28 01:48:38;;;;;;;143.15;39.67;;;5.50;99.90;;;6.32;100.00;99988.13;5000917;28;20041;-80
2021/01/28 01:51:27;;;;;;;147.57;41.63;;;5.50;99.90;;;6.34;100.00;99982.25;4999649;28;20470;-81
2021/01/28 01:54:06;;;;;;;137.48;38.65;;;5.50;99.90;;;6.27;100.00;99984.78;4998532;28;20058;-81
2021/01/28 01:56:45;;;;;;;126.78;37.22;;;5.40;99.90;;;6.29;100.00;99977.75;5000128;28;20424;-82
2021/01/28 01:59:12;;;;;;;145.20;36.95;;;5.50;99.90;;;6.30;100.00;99967.47;4998364;28;20049;-79
2021/01/28 02:01:56;;;;;;;130.98;35.92;;;5.40;99.90;;;6.26;100.00;99966.56;4998202;28;20070;-83
2021/01/28 02:04:22;;;;;;;132.13;36.17;;;5.40;99.90;;;6.18;100.00;99971.03;5000567;28;20173;-79
2021/01/28 02:07:02;;;;;;;138.48;37.95;;;5.50;99.90;;;6.13;100.00;99965.72;4981934;28;20026;-82
2021/01/28 02:09:28;;;;;;;124.93;36.08;;;5.40;99.90;;;6.27;100.00;99957.88;5001302;28;20466;-82
2021/01/28 02:11:54;;;;;;;129.13;38.28;;;5.40;99.90;;;6.25;100.00;99956.59;5001307;28;20037;-80
2021/01/28 02:14:20;;;;;;;134.20;38.72;;;5.40;99.90;;;6.16;100.00;99940.09;5001856;28;20030;-81
2021/01/28 02:16:55;;;;;;;121.30;33.75;;;5.40;99.90;;;6.27;100.00;99945.97;5001141;28;20034;-84
2021/01/28 02:19:52;;;;;;;132.98;36.38;;;5.40;99.90;;;6.17;100.00;99943.66;4984906;28;20030;-82
2021/01/28 02:22:57;;;;;;;126.90;35.45;;;5.40;99.90;;;6.28;100.00;99944.81;5016059;28;20045;-81
2021/01/28 02:25:30;;;;;;;137.52;34.20;;;5.40;99.90;;;6.28;100.00;99942.06;5001882;28;20034;-83
2021/01/28 02:28:06;;;;;;;124.70;35.05;;;5.40;99.90;;;6.27;100.00;99934.88;4999590;28;20560;-80
2021/01/28 02:30:36;;;;;;;130.43;33.60;;;5.40;99.90;;;6.19;100.00;99936.63;5002490;28;20034;-82
2021/01/28 02:33:07;;;;;;;119.53;33.78;;;5.40;99.90;;;6.15;100.00;99932.09;4982117;28;20138;-80
2021/01/28 02:35:36;;;;;;;131.27;33.08;;;5.50;99.90;;;6.20;100.00;99932.69;5002367;28;20107;-82
2021/01/28 02:38:09;;;;;;;109.13;33.25;;;5.40;99.90;;;6.21;100.00;99926.00;5013276;28;20195;-82
2021/01/28 02:40:38;;;;;;;137.88;35.92;;;5.40;99.90;;;6.17;100.00;99916.75;5000428;28;20474;-82
2021/01/28 02:43:05;;;;;;;137.77;36.17;;;5.40;99.90;;;6.22;100.00;99922.06;4979714;28;20031;-83
2021/01/28 02:45:36;;;;;;;133.60;36.47;;;5.40;99.90;;;6.13;100.00;99923.34;4971895;28;20235;-82
2021/01/28 02:48:09;;;;;;;136.48;33.30;;;5.40;99.90;;;6.07;100.00;99906.09;5016291;28;20034;-83
2021/01/28 02:50:36;;;;;;;137.32;35.15;;;5.30;99.90;;;6.08;100.00;99909.69;4992448;28;20442;-82
2021/01/28 02:53:07;;;;;;;136.35;33.83;;;5.30;99.90;;;6.16;100.00;99900.47;5003797;28;20843;-83
2021/01/28 02:55:35;;;;;;;124.55;32.08;;;5.30;99.90;;;6.07;100.00;99895.00;5003576;28;20088;-84
2021/01/28 02:58:02;;;;;;;110.28;31.02;;;5.30;99.90;;;6.04;100.00;99889.34;5021797;28;20026;-80
2021/01/28 03:00:36;;;;;;;132.13;32.85;;;5.30;99.90;;;6.12;100.00;99891.22;5012217;28;20030;-80
2021/01/28 03:03:08;;;;;;;110.10;30.73;;;5.30;99.90;;;6.10;100.00;99877.69;5000788;28;20474;-80
2021/01/28 03:05:35;;;;;;;130.68;33.13;;;5.30;99.90;;;6.02;100.00;99872.28;5000021;28;20030;-82
2021/01/28 03:08:02;;;;;;;121.20;33.28;;;5.20;99.90;;;6.02;100.00;99866.72;5000703;28;20034;-82
2021/01/28 03:10:28;;;;;;;129.80;33.38;;;5.30;99.90;;;6.00;100.00;99867.09;5000704;28;20045;-83
2021/01/28 03:12:54;;;;;;;123.32;34.25;;;5.20;99.90;;;6.10;100.00;99874.91;5001212;28;20030;-83
2021/01/28 03:15:23;;;;;;;120.35;30.20;;;5.20;99.90;;;6.13;100.00;99857.59;5015662;28;20131;-81
2021/01/28 03:17:52;;;;;;;129.25;31.38;;;5.20;99.90;;;6.06;100.00;99851.84;5020003;28;20006;-78
2021/01/28 03:20:24;;;;;;;118.43;31.20;;;5.20;99.90;;;6.08;100.00;99846.75;5016093;28;20035;-80
2021/01/28 03:22:51;;;;;;;105.10;29.90;;;5.20;99.90;;;6.09;100.00;99845.59;4988892;28;20030;-83
2021/01/28 03:25:20;;;;;;;109.85;29.95;;;5.20;99.90;;;6.08;100.00;99834.84;4999238;28;20045;-83
2021/01/28 03:27:48;;;;;;;127.53;32.45;;;5.20;99.90;;;6.15;100.00;99824.78;4998305;28;20034;-82
2021/01/28 03:30:40;;;;;;;119.78;30.67;;;5.20;99.90;;;6.14;100.00;99822.34;4981663;28;20052;-83
2021/01/28 03:33:12;;;;;;;131.80;33.03;;;5.30;99.90;;;6.03;100.00;99812.91;4999953;28;20049;-80
2021/01/28 03:35:39;;;;;;;115.20;31.33;;;5.20;99.90;;;6.02;100.00;99820.41;4982145;28;20038;-81
2021/01/28 03:38:08;;;;;;;123.03;31.67;;;5.20;99.90;;;5.93;100.00;99814.19;5000445;28;20098;-81
2021/01/28 03:40:35;;;;;;;126.30;31.38;;;5.20;99.90;;;5.93;100.00;99802.28;4999063;28;20057;-81
2021/01/28 03:43:01;;;;;;;123.50;31.38;;;5.20;99.90;;;5.96;100.00;99804.38;4981128;28;20452;-82
2021/01/28 03:45:27;;;;;;;107.28;28.42;;;5.20;99.90;;;5.88;100.00;99805.28;5006273;28;20365;-82
2021/01/28 03:47:56;;;;;;;106.38;28.63;;;5.20;99.90;;;5.90;100.00;99809.34;5013680;28;20091;-81
2021/01/28 03:50:32;;;;;;;101.50;27.45;;;5.10;99.90;;;5.97;100.00;99828.97;4994252;28;20049;-80
2021/01/28 03:52:58;;;;;;;98.35;27.88;;;5.10;99.90;;;5.90;100.00;99823.19;4997671;28;20046;-81
2021/01/28 03:55:25;;;;;;;93.88;24.98;;;5.20;99.90;;;5.99;100.00;99823.06;4996893;28;20494;-80
2021/01/28 03:57:53;;;;;;;83.90;26.38;;;5.10;99.90;;;6.00;100.00;99830.25;4981939;28;20041;-82
2021/01/28 04:00:34;;;;;;;86.40;26.88;;;5.10;99.90;;;5.92;100.00;99828.38;4996705;28;20038;-83
2021/01/28 04:03:03;;;;;;;96.47;26.95;;;5.10;99.90;;;5.92;100.00;99806.22;4999744;28;20040;-82
2021/01/28 04:05:29;;;;;;;94.38;26.63;;;5.10;99.90;;;5.89;100.00;99806.91;4996299;28;20030;-81
2021/01/28 04:07:56;;;;;;;90.32;26.83;;;5.10;99.90;;;6.01;100.00;99807.69;4997627;28;20569;-81
2021/01/28 04:10:37;;;;;;;86.35;26.83;;;5.10;99.90;;;6.03;100.00;99804.59;5016089;28;20033;-82
2021/01/28 04:13:07;;;;;;;86.93;26.85;;;5.10;99.90;;;6.11;100.00;99803.66;5010644;28;20034;-84
2021/01/28 04:15:34;;;;;;;80.45;27.15;;;5.10;99.90;;;6.00;100.00;99803.34;4997823;28;20031;-80
2021/01/28 04:18:02;;;;;;;77.97;25.60;;;5.10;99.90;;;5.98;100.00;99783.47;4979960;28;20026;-82
2021/01/28 04:20:35;;;;;;;79.18;24.80;;;5.10;99.90;;;5.93;100.00;99775.38;4993482;28;20347;-82
2021/01/28 04:23:02;;;;;;;69.10;24.95;;;5.10;99.90;;;5.92;100.00;99784.03;4996650;28;20033;-82
2021/01/28 04:25:28;;;;;;;73.28;23.13;;;5.10;99.90;;;5.95;100.00;99781.38;4990978;28;20037;-81
2021/01/28 04:27:56;;;;;;;73.07;24.13;;;5.10;99.90;;;5.95;100.00;99781.38;4997711;28;20022;-82
2021/01/28 04:30:31;;;;;;;73.32;24.67;;;5.10;99.90;;;5.94;100.00;99776.19;4997521;28;20057;-82
2021/01/28 04:33:01;;;;;;;63.15;21.45;;;5.10;99.90;;;5.93;100.00;99771.81;4999307;28;20044;-83
2021/01/28 04:35:27;;;;;;;72.43;24.70;;;5.00;99.90;;;5.93;99.77;99772.63;4996373;28;20066;-82
2021/01/28 04:37:53;;;;;;;66.93;22.65;;;5.10;99.90;;;5.94;99.88;99765.13;4997213;28;20386;-83
2021/01/28 04:41:08;;;;;;;56.53;21.45;;;5.00;99.90;;;5.94;99.61;99752.03;4997077;28;20026;-84
2021/01/28 04:43:34;;;;;;;59.72;22.42;;;5.10;99.90;;;5.92;99.68;99761.88;4963738;28;20093;-82
2021/01/28 04:46:09;;;;;;;59.50;21.83;;;5.00;99.90;;;5.92;99.85;99751.59;5000081;28;20030;-82
2021/01/28 04:48:36;;;;;;;55.30;21.38;;;5.00;99.90;;;5.89;99.75;99749.53;5002034;28;20045;-82
2021/01/28 04:51:05;;;;;;;56.97;19.92;;;5.00;99.90;;;5.91;99.55;99732.56;4999514;28;20089;-84
2021/01/28 04:54:01;;;;;;;47.35;19.90;;;5.00;99.90;;;5.97;99.38;99739.47;5000014;28;20030;-82
2021/01/28 04:56:29;;;;;;;50.47;20.00;;;5.00;99.90;;;5.98;99.04;99732.75;5002331;28;20351;-81
2021/01/28 04:59:43;;;;;;;48.63;19.83;;;5.00;99.90;;;5.94;99.35;99726.31;5001757;28;20402;-82
2021/01/28 05:02:28;;;;;;;49.83;20.05;;;5.00;99.90;;;5.83;99.45;99706.56;5001732;28;20080;-81
2021/01/28 05:05:01;;;;;;;48.33;18.83;;;5.00;99.90;;;5.93;99.02;99708.88;5000811;28;20041;-82
2021/01/28 05:07:36;;;;;;;49.05;19.38;;;5.00;99.90;;;5.89;99.23;99696.06;4994029;28;20034;-82
2021/01/28 05:10:11;;;;;;;49.65;21.33;;;5.00;99.90;;;5.93;98.61;99691.44;5000252;28;20053;-83
2021/01/28 05:12:39;;;;;;;45.83;19.63;;;5.00;99.90;;;5.99;98.44;99688.06;5001797;28;20117;-82
2021/01/28 05:15:27;;;;;;;44.20;19.00;;;5.00;99.90;;;5.96;98.30;99680.47;5002678;28;20553;-80
2021/01/28 05:18:26;;;;;;;49.33;18.85;;;5.00;99.90;;;5.99;98.48;99671.44;5002907;28;20397;-81
2021/01/28 05:21:06;;;;;;;47.03;21.02;;;5.00;99.90;;;5.96;98.38;99669.38;5000857;28;20037;-82
2021/01/28 05:23:39;;;;;;;49.70;20.35;;;5.00;99.90;;;5.91;98.74;99666.81;5000362;28;20419;-82
2021/01/28 05:26:28;;;;;;;51.08;20.80;;;5.00;99.90;;;5.94;98.59;99657.81;4984904;28;20494;-80
2021/01/28 05:28:55;;;;;;;53.03;20.40;;;5.10;99.90;;;5.95;98.40;99650.31;5001262;28;20053;-81
2021/01/28 05:31:33;;;;;;;48.40;19.55;;;5.00;99.90;;;5.87;98.49;99638.22;4999084;28;20062;-81
2021/01/28 05:34:17;;;;;;;48.63;20.10;;;5.00;99.90;;;5.86;98.59;99633.03;5019482;28;20092;-81
2021/01/28 05:36:58;;;;;;;42.95;18.55;;;5.00;99.90;;;5.88;98.21;99627.94;5006650;28;20027;-81
2021/01/28 05:39:37;;;;;;;46.22;18.30;;;5.00;99.90;;;5.84;98.61;99616.72;5009544;28;20072;-81
2021/01/28 05:42:24;;;;;;;39.45;17.95;;;5.00;99.90;;;5.81;98.44;99612.69;5020032;28;20065;-81
2021/01/28 05:44:50;;;;;;;50.80;17.40;;;5.00;99.90;;;5.78;98.57;99616.16;5017929;28;20457;-82
2021/01/28 05:47:30;;;;;;;38.05;16.70;;;5.00;99.90;;;5.80;97.88;99600.00;4999617;28;20038;-80
2021/01/28 05:50:24;;;;;;;40.13;17.98;;;5.00;99.90;;;5.75;98.48;99591.91;5013121;28;20057;-81
2021/01/28 05:52:50;;;;;;;51.92;18.10;;;5.00;99.90;;;5.77;98.16;99595.16;4999864;28;20331;-82
2021/01/28 05:55:23;;;;;;;41.08;17.55;;;4.90;99.90;;;5.75;98.29;99591.09;5011942;28;20106;-79
2021/01/28 05:58:23;;;;;;;37.63;16.52;;;4.90;99.90;;;5.60;98.40;99576.06;5013078;28;20029;-80
2021/01/28 06:01:18;;;;;;;36.83;16.08;;;4.90;99.90;;;5.62;98.46;99567.41;5007588;28;20065;-80
2021/01/28 06:05:08;;;;;;;34.83;15.88;;;4.90;99.90;;;5.65;98.53;99558.38;4978153;28;20103;-79
2021/01/28 06:08:07;;;;;;;41.20;15.35;;;4.90;99.90;;;5.58;98.13;99547.91;4994116;28;20026;-81
2021/01/28 06:11:10;;;;;;;35.35;15.82;;;4.90;99.90;;;5.64;98.40;99554.00;5001789;28;20128;-79
2021/01/28 06:14:13;;;;;;;36.30;16.13;;;4.80;99.90;;;5.65;98.30;99542.56;4997420;28;20049;-80
2021/01/28 06:17:25;;;;;;;37.20;17.33;;;4.80;99.90;;;5.65;97.87;99539.78;4979080;28;20106;-83
2021/01/28 06:20:37;;;;;;;40.38;17.45;;;4.80;99.90;;;5.62;97.97;99540.47;4976445;28;20034;-79
2021/01/28 06:23:59;;;;;;;39.38;17.20;;;4.80;99.90;;;5.62;97.75;99529.41;4999109;28;20031;-79
2021/01/28 06:27:29;;;;;;;33.53;16.80;;;4.80;99.90;;;5.56;98.14;99519.75;5000720;28;20102;-80
2021/01/28 06:30:04;;;;;;;36.85;17.30;;;4.80;99.90;;;5.66;97.72;99513.69;4967548;28;20104;-80
2021/01/28 06:33:22;;;;;;;41.05;17.75;;;4.80;99.90;;;5.62;97.67;99510.03;4997191;28;20038;-81
2021/01/28 06:36:26;;;;;;;36.03;16.02;;;4.80;99.90;;;5.51;97.89;99503.38;4997710;28;20040;-82
2021/01/28 06:39:19;;;;;;;33.00;15.40;;;4.80;99.90;;;5.48;98.17;99490.25;4997294;28;20492;-81
2021/01/28 06:42:33;;;;;;;28.20;15.23;;;4.80;99.90;;;5.53;97.61;99487.22;4996186;28;20022;-80
2021/01/28 06:45:14;;;;;;;32.78;15.45;;;4.70;99.90;;;5.51;98.24;99478.47;4997876;28;20026;-80
2021/01/28 06:48:09;;;;;;;30.15;14.23;;;4.70;99.90;;;5.56;97.38;99482.91;4998654;28;20030;-81
2021/01/28 06:50:51;;;;;;;25.13;12.57;;;4.70;99.90;;;5.60;97.53;99481.88;4997792;28;20030;-80
2021/01/28 06:53:53;;;;;;;24.50;13.00;;;4.70;99.90;;;5.58;97.72;99480.63;4997701;28;20037;-79
2021/01/28 06:56:40;;;;;;;32.42;13.48;;;4.60;99.90;;;5.54;97.55;99471.41;4979990;28;20061;-81
2021/01/28 06:59:38;;;;;;;28.52;13.00;;;4.70;99.90;;;5.45;97.86;99459.69;5000609;28;20094;-81
2021/01/28 07:03:09;;;;;;;26.52;12.48;;;4.60;99.90;;;5.46;97.63;99467.63;4998029;28;20117;-80
2021/01/28 07:06:07;;;;;;;22.45;11.48;;;4.60;99.90;;;5.42;98.09;99461.19;4975099;28;20038;-80
2021/01/28 07:09:29;;;;;;;22.90;11.25;;;4.60;99.90;;;5.33;97.91;99453.03;4999203;28;20034;-81
2021/01/28 07:12:03;;;;;;;20.10;9.95;;;4.50;99.90;;;5.40;97.92;99449.66;4997938;28;20026;-81
2021/01/28 07:14:30;;;;;;;18.95;10.15;;;4.50;99.90;;;5.24;98.08;99437.72;4998578;28;20172;-81
2021/01/28 07:17:33;;;;;;;19.23;9.10;;;4.50;99.90;;;5.32;98.05;99434.00;4997462;28;20037;-79
2021/01/28 07:20:07;;;;;;;18.45;10.00;;;4.50;99.90;;;5.24;98.48;99421.09;4959297;28;20399;-83
2021/01/28 07:22:37;;;;;;;15.35;8.20;;;4.50;99.90;;;5.23;98.24;99425.06;4997280;28;20121;-82
2021/01/28 07:25:28;;;;;;;19.98;9.40;;;4.50;99.90;;;5.31;97.98;99411.06;4999035;28;20105;-81
2021/01/28 07:28:14;;;;;;;16.42;8.30;;;4.50;99.90;;;5.39;97.31;99419.56;5000426;28;20142;-81
2021/01/28 07:31:13;;;;;;;14.35;8.20;;;4.50;99.90;;;5.46;97.35;99415.00;4975805;28;20049;-82
2021/01/28 07:34:09;;;;;;;16.02;7.97;;;4.50;99.90;;;5.47;97.22;99410.28;4999551;28;20034;-81
2021/01/28 07:36:42;;;;;;;11.65;6.82;;;4.60;99.90;;;5.45;96.73;99412.59;4999467;28;20039;-80
2021/01/28 07:39:29;;;;;;;14.85;7.22;;;4.50;99.90;;;5.38;96.71;99402.13;4998563;28;20034;-81
2021/01/28 07:42:01;;;;;;;11.55;6.65;;;4.50;99.90;;;5.35;97.05;99396.50;4998628;28;20039;-81
2021/01/28 07:44:50;;;;;;;11.02;5.78;;;4.50;99.90;;;5.37;96.61;99386.69;4998961;28;20121;-80
2021/01/28 07:47:31;;;;;;;12.07;7.35;;;4.50;99.90;;;5.41;96.73;99384.00;4998777;28;20054;-82
2021/01/28 07:50:22;;;;;;;10.73;5.97;;;4.50;99.90;;;5.38;96.38;99377.22;4999037;28;20506;-82
2021/01/28 07:52:48;;;;;;;9.35;5.13;;;4.50;99.90;;;5.28;96.43;99367.47;5010338;28;20054;-80
2021/01/28 07:55:35;;;;;;;9.25;5.60;;;4.50;99.90;;;5.25;97.06;99361.81;5005863;28;20030;-80
2021/01/28 07:58:28;;;;;;;7.40;4.18;;;4.50;99.90;;;5.27;96.11;99365.03;4997574;28;20044;-79
2021/01/28 08:00:55;;;;;;;5.97;4.03;;;4.50;99.90;;;5.31;96.44;99357.66;4997350;28;20038;-80
2021/01/28 08:04:06;;;;;;;8.60;4.78;;;4.60;99.90;;;5.51;95.47;99345.53;4996483;28;20034;-80
2021/01/28 08:06:39;;;;;;;7.25;4.03;;;4.60;99.90;;;5.53;96.01;99343.19;4998549;28;20130;-81
2021/01/28 08:09:14;;;;;;;7.28;4.63;;;4.60;99.90;;;5.57;96.00;99321.13;4997225;28;20042;-81
2021/01/28 08:11:48;;;;;;;;;;;4.60;99.90;;;5.60;95.78;99323.19;5008570;28;20056;-82
2021/01/28 08:14:19;;;;;;;8.00;3.90;;;4.70;99.90;;;5.60;95.55;99325.97;4961637;28;19910;-80
2021/01/28 08:16:53;;;;;;;8.23;4.07;;;4.70;99.90;;;5.64;95.33;99327.69;4989373;28;20041;-82
2021/01/28 08:19:27;;;;;;;7.88;4.05;;;4.70;99.90;;;5.65;95.23;99317.41;5004825;28;20057;-82
2021/01/28 08:22:20;;;;;;;6.47;3.50;;;4.70;99.90;;;5.63;95.49;99309.44;4998865;28;20038;-80
2021/01/28 08:24:58;;;;;;;6.60;3.60;;;4.70;99.90;;;5.65;95.52;99298.78;4987899;28;20036;-81
2021/01/28 08:27:34;;;;;;;5.93;3.67;;;4.70;99.90;;;5.65;95.39;99293.25;5003691;28;20391;-81
2021/01/28 08:30:21;;;;;;;7.38;4.50;;;4.70;99.90;;;5.65;95.91;99290.47;5002272;28;20402;-80
2021/01/28 08:32:59;;;;;;;7.00;4.53;;;4.70;99.90;;;5.66;95.79;99288.53;5016618;28;20034;-80
2021/01/28 08:35:43;;;;;;;6.18;4.35;;;4.80;99.90;;;5.69;95.77;99277.53;4997465;28;20034;-81
2021/01/28 08:38:33;;;;;;;10.05;4.85;;;4.80;99.90;;;5.68;95.89;99277.91;4997805;28;20026;-81
2021/01/28 08:41:25;;;;;;;8.23;4.72;;;4.80;99.90;;;5.69;95.84;99266.47;4997838;28;20054;-81
2021/01/28 08:44:20;;;;;;;8.23;4.93;;;4.80;99.90;;;5.72;95.95;99268.50;4988964;28;20106;-79
2021/01/28 08:46:49;;;;;;;9.02;5.78;;;4.80;99.90;;;5.75;95.51;99264.22;4986705;28;20043;-80
2021/01/28 08:49:20;;;;;;;11.60;5.75;;;4.80;99.90;;;5.75;95.95;99266.97;5000887;28;20094;-81
2021/01/28 08:52:07;;;;;;;12.43;5.82;;;4.80;99.90;;;5.74;95.45;99255.13;5002210;28;20032;-80
2021/01/28 08:54:43;;;;;;;14.82;6.90;;;4.80;99.90;;;5.77;95.62;99256.34;4992818;28;20113;-82
2021/01/28 08:57:19;;;;;;;14.82;7.22;;;4.80;99.90;;;5.77;96.20;99248.03;5004479;28;20033;-84
2021/01/28 09:00:01;;;;;;;14.05;7.93;;;4.80;99.90;;;5.77;95.95;99246.09;5008643;28;20054;-82
2021/01/28 09:02:47;;;;;;;14.48;7.65;;;4.80;99.90;;;5.77;96.21;99245.28;5001033;28;20033;-83
2021/01/28 09:05:30;;;;;;;14.82;7.25;;;4.80;99.90;;;5.76;96.21;99244.47;4984882;28;20092;-80
2021/01/28 09:08:22;;;;;;;12.23;6.82;;;4.80;99.90;;;5.74;95.80;99237.69;5011219;28;20037;-83
2021/01/28 09:10:51;;;;;;;12.48;6.40;;;4.80;99.90;;;5.64;95.89;99241.00;5021216;28;20057;-82
2021/01/28 09:13:29;;;;;;;7.95;5.18;;;4.80;99.90;;;5.68;95.62;99226.06;5020291;28;20034;-81
2021/01/28 09:16:18;;;;;;;8.05;5.07;;;4.80;99.90;;;5.70;95.94;99234.03;5003050;28;20109;-82
2021/01/28 09:18:52;;;;;;;12.73;5.22;;;4.80;99.90;;;5.71;95.88;99230.91;5019573;28;20029;-83
2021/01/28 09:21:38;;;;;;;11.05;5.85;;;4.80;99.90;;;5.71;95.66;99239.22;5021588;28;20454;-81
2021/01/28 09:24:23;;;;;;;10.93;5.60;;;4.80;99.90;;;5.76;95.65;99221.50;5017742;28;20140;-82
2021/01/28 09:27:33;;;;;;;10.60;5.80;;;4.80;99.90;;;5.75;95.86;99220.69;5000131;28;20065;-84
2021/01/28 09:30:24;;;;;;;9.65;5.20;;;4.80;99.90;;;5.75;95.67;99217.91;5001121;28;20038;-82
2021/01/28 09:32:51;;;;;;;9.70;5.50;;;4.80;99.90;;;5.72;95.70;99210.34;5001543;28;20542;-83
2021/01/28 09:35:23;;;;;;;9.75;5.85;;;4.80;99.90;;;5.73;95.80;99213.91;5002310;28;20046;-83
2021/01/28 09:38:14;;;;;;;8.80;5.15;;;4.80;99.90;;;5.69;96.08;99211.06;4985723;28;20046;-82
2021/01/28 09:40:46;;;;;;;9.88;5.63;;;4.80;99.90;;;5.68;96.12;99198.34;5001524;28;20645;-82
2021/01/28 09:43:39;;;;;;;11.85;5.80;;;4.80;99.90;;;5.64;96.10;99193.91;5002160;28;20026;-80
2021/01/28 09:46:19;;;;;;;10.93;6.05;;;4.80;99.90;;;5.70;95.81;99204.34;5002270;28;20038;-82
2021/01/28 09:48:47;;;;;;;8.55;5.32;;;4.80;99.90;;;5.70;95.49;99196.06;5003220;28;20393;-84
2021/01/28 09:51:25;;;;;;;13.40;5.85;;;4.80;99.90;;;5.73;95.27;99195.31;5004412;28;20030;-82
2021/01/28 09:54:15;;;;;;;12.38;6.47;;;4.80;99.90;;;5.69;96.07;99193.63;5002955;28;20030;-83
2021/01/28 09:56:43;;;;;;;8.90;5.43;;;4.80;99.90;;;5.68;96.13;99192.03;4986898;28;20511;-80
2021/01/28 09:59:10;;;;;;;9.13;5.70;;;4.80;99.90;;;5.71;95.94;99185.78;5015304;28;20030;-82
2021/01/28 10:01:36;;;;;;;9.00;4.80;;;4.80;99.90;;;5.71;95.70;99185.78;5006796;28;20026;-83
2021/01/28 10:04:03;;;;;;;8.20;4.53;;;4.80;99.90;;;5.78;95.59;99180.38;5023881;28;20026;-82
2021/01/28 10:06:30;;;;;;;6.70;4.30;;;4.80;99.90;;;5.79;95.37;99176.44;5028772;28;20090;-79
2021/01/28 10:08:56;;;;;;;7.53;4.05;;;4.80;99.90;;;5.77;95.18;99181.56;5011478;28;20046;-81
2021/01/28 10:11:24;;;;;;;7.07;3.35;;;4.80;99.90;;;5.68;95.85;99172.66;5004517;28;20094;-82
2021/01/28 10:13:50;;;;;;;7.47;4.00;;;4.80;99.90;;;5.70;95.86;99171.13;5004832;28;20065;-82
2021/01/28 10:16:19;;;;;;;8.00;4.10;;;4.80;99.90;;;5.76;95.65;99171.63;5023331;28;20076;-82
2021/01/28 10:18:45;;;;;;;8.25;4.60;;;4.80;99.90;;;5.69;95.81;99165.94;5003611;28;20022;-79
2021/01/28 10:21:14;;;;;;;7.75;4.03;;;4.80;99.90;;;5.68;95.92;99159.59;4997674;28;20414;-82
2021/01/28 10:23:39;;;;;;;6.75;3.42;;;4.90;99.90;;;5.78;95.67;99155.44;5016492;28;20026;-81
2021/01/28 10:26:08;;;;;;;8.52;4.05;;;4.90;99.90;;;5.70;95.84;99150.91;4991954;28;20410;-81
2021/01/28 10:28:34;;;;;;;6.93;3.75;;;4.80;99.90;;;5.78;95.18;99152.66;4995816;28;20034;-79
2021/01/28 10:31:06;;;;;;;7.20;4.03;;;4.80;99.90;;;5.84;94.86;99151.25;5003933;28;20042;-79
2021/01/28 10:33:36;;;;;;;8.15;4.25;;;4.90;99.90;;;5.75;95.57;99145.91;5003856;28;20098;-82
2021/01/28 10:36:07;;;;;;;10.13;4.40;;;4.90;99.90;;;5.75;95.76;99143.13;5006928;28;20042;-80
2021/01/28 10:38:35;;;;;;;7.00;4.00;;;4.90;99.90;;;5.83;95.46;99133.81;5024752;28;20026;-82
2021/01/28 10:41:05;;;;;;;6.68;4.65;;;4.90;99.90;;;5.84;95.13;99137.41;5022904;28;20079;-83
2021/01/28 10:43:31;;;;;;;8.40;5.07;;;4.90;99.90;;;5.88;95.48;99126.41;5006554;28;20021;-81
2021/01/28 10:45:57;;;;;;;11.35;4.32;;;4.90;99.90;;;5.86;95.15;99124.00;5006277;28;20418;-82
2021/01/28 10:48:23;;;;;;;9.23;4.72;;;4.90;99.90;;;5.79;95.24;99121.84;5006404;28;20034;-83
2021/01/28 10:50:50;;;;;;;9.20;4.55;;;4.90;99.90;;;5.74;95.80;99129.66;5007225;28;20038;-82
2021/01/28 10:53:17;;;;;;;8.23;4.47;;;4.90;99.90;;;5.74;95.30;99122.16;5007361;28;20042;-82
2021/01/28 10:55:43;;;;;;;8.45;5.03;;;4.90;99.90;;;5.74;96.06;99122.16;5006193;28;20539;-82
2021/01/28 10:58:09;;;;;;;9.27;5.80;;;4.90;99.90;;;5.78;95.74;99117.47;4986093;28;20030;-81
2021/01/28 11:00:35;;;;;;;9.05;4.60;;;4.90;99.90;;;5.84;95.42;99106.91;4984530;28;20130;-83